createdAt,value
2023-01-29T00:00:10.533Z,1.80
2023-01-29T00:01:14.769Z,1.80
2023-01-29T00:02:16.628Z,1.80
2023-01-29T00:03:18.298Z,1.70
2023-01-29T00:04:20.135Z,1.60
2023-01-29T00:05:27.810Z,1.60
2023-01-29T00:06:29.913Z,1.50
2023-01-29T00:07:31.946Z,1.50
2023-01-29T00:08:35.132Z,1.50
2023-01-29T00:09:36.765Z,1.50
2023-01-29T00:10:38.331Z,1.50
2023-01-29T00:11:40.737Z,1.40
2023-01-29T00:12:42.239Z,1.50
2023-01-29T00:13:43.862Z,1.40
2023-01-29T00:14:45.554Z,1.50
2023-01-29T00:15:58.347Z,1.40
2023-01-29T00:17:00.339Z,1.50
2023-01-29T00:18:02.494Z,1.50
2023-01-29T00:19:04.168Z,1.50
2023-01-29T00:20:06.214Z,1.50
2023-01-29T00:21:15.580Z,1.50
2023-01-29T00:22:17.114Z,1.50
2023-01-29T00:23:19.253Z,1.50
2023-01-29T00:24:20.939Z,1.50
2023-01-29T00:25:22.748Z,1.50
2023-01-29T00:26:24.953Z,1.50
2023-01-29T00:27:26.947Z,1.60
2023-01-29T00:28:29.624Z,1.60
2023-01-29T00:29:31.165Z,1.60
2023-01-29T00:30:33.012Z,1.60
2023-01-29T00:31:34.827Z,1.50
2023-01-29T00:32:36.523Z,1.50
2023-01-29T00:33:38.047Z,1.60
2023-01-29T00:34:39.578Z,1.60
2023-01-29T00:35:42.253Z,1.60
2023-01-29T00:36:45.589Z,1.60
2023-01-29T00:37:47.723Z,1.60
2023-01-29T00:39:02.548Z,1.70
2023-01-29T00:40:05.364Z,1.60
2023-01-29T00:41:33.480Z,1.70
2023-01-29T00:42:53.654Z,1.70
2023-01-29T00:44:13.704Z,1.70
2023-01-29T00:45:15.321Z,1.70
2023-01-29T00:46:16.933Z,1.70
2023-01-29T00:47:37.147Z,1.70
2023-01-29T00:48:39.058Z,1.70
2023-01-29T00:49:40.598Z,1.80
2023-01-29T00:50:42.183Z,1.70
2023-01-29T00:51:43.713Z,1.80
2023-01-29T00:52:45.915Z,1.70
2023-01-29T00:53:47.937Z,1.70
2023-01-29T00:54:49.590Z,1.70
2023-01-29T00:55:51.157Z,1.60
2023-01-29T00:56:52.991Z,1.60
2023-01-29T00:57:54.971Z,1.60
2023-01-29T00:58:56.974Z,1.70
2023-01-29T00:59:58.833Z,1.70
2023-01-29T01:01:02.332Z,1.70
2023-01-29T01:02:22.613Z,1.60
2023-01-29T01:03:24.566Z,1.70
2023-01-29T01:04:26.124Z,1.60
2023-01-29T01:05:28.354Z,1.60
2023-01-29T01:06:30.251Z,1.70
2023-01-29T01:07:32.230Z,1.60
2023-01-29T01:08:52.482Z,1.60
2023-01-29T01:10:13.516Z,1.60
2023-01-29T01:11:15.321Z,1.60
2023-01-29T01:12:16.792Z,1.60
2023-01-29T01:13:18.413Z,1.60
2023-01-29T01:14:20.985Z,1.50
2023-01-29T01:15:25.197Z,1.50
2023-01-29T01:16:27.083Z,1.40
2023-01-29T01:17:28.796Z,1.50
2023-01-29T01:18:31.174Z,1.50
2023-01-29T01:19:33.949Z,1.50
2023-01-29T01:20:36.496Z,1.50
2023-01-29T01:21:38.048Z,1.50
2023-01-29T01:22:40.110Z,1.60
2023-01-29T01:23:41.687Z,1.60
2023-01-29T01:24:43.167Z,1.60
2023-01-29T01:25:44.911Z,1.60
2023-01-29T01:26:46.714Z,1.50
2023-01-29T01:27:48.326Z,1.60
2023-01-29T01:28:49.801Z,1.50
2023-01-29T01:29:51.512Z,1.50
2023-01-29T01:30:52.970Z,1.50
2023-01-29T01:31:54.735Z,1.40
2023-01-29T01:32:56.664Z,1.50
2023-01-29T01:33:58.314Z,1.50
2023-01-29T01:35:00.552Z,1.40
2023-01-29T01:36:02.546Z,1.30
2023-01-29T01:37:04.693Z,1.30
2023-01-29T01:38:06.324Z,1.40
2023-01-29T01:39:07.894Z,1.40
2023-01-29T01:40:18.086Z,1.40
2023-01-29T01:41:22.840Z,1.30
2023-01-29T01:42:30.823Z,1.30
2023-01-29T01:43:48.686Z,1.30
2023-01-29T01:44:55.848Z,1.20
2023-01-29T01:45:57.472Z,1.20
2023-01-29T01:47:01.599Z,1.30
2023-01-29T01:48:25.087Z,1.30
2023-01-29T01:49:26.745Z,1.30
2023-01-29T01:50:40.094Z,1.30
2023-01-29T01:51:45.317Z,1.30
2023-01-29T01:52:53.017Z,1.30
2023-01-29T01:54:07.641Z,1.30
2023-01-29T01:55:12.293Z,1.30
2023-01-29T01:56:19.231Z,1.20
2023-01-29T01:57:24.839Z,1.20
2023-01-29T01:58:39.321Z,1.20
2023-01-29T01:59:43.393Z,1.20
2023-01-29T02:00:44.951Z,1.20
2023-01-29T02:01:51.353Z,1.10
2023-01-29T02:03:12.475Z,1.10
2023-01-29T02:04:37.334Z,1.10
2023-01-29T02:05:58.721Z,1.00
2023-01-29T02:07:21.788Z,1.00
2023-01-29T02:09:06.104Z,1.10
2023-01-29T02:10:16.057Z,1.00
2023-01-29T02:11:18.163Z,0.90
2023-01-29T02:12:20.982Z,0.90
2023-01-29T02:13:23.160Z,0.90
2023-01-29T02:14:25.447Z,0.80
2023-01-29T02:15:27.111Z,0.80
2023-01-29T02:16:31.512Z,0.80
2023-01-29T02:17:33.351Z,0.90
2023-01-29T02:18:38.090Z,1.00
2023-01-29T02:20:08.402Z,0.90
2023-01-29T02:21:32.731Z,0.80
2023-01-29T02:23:02.735Z,0.80
2023-01-29T02:24:34.374Z,0.70
2023-01-29T02:25:53.426Z,0.60
2023-01-29T02:27:20.074Z,0.60
2023-01-29T02:28:40.318Z,0.60
2023-01-29T02:30:04.622Z,0.60
2023-01-29T02:31:29.454Z,0.50
2023-01-29T02:32:58.439Z,0.40
2023-01-29T02:34:28.870Z,0.30
2023-01-29T02:35:38.933Z,0.30
2023-01-29T02:36:55.941Z,0.20
2023-01-29T02:38:28.644Z,0.20
2023-01-29T02:39:44.850Z,0.10
2023-01-29T02:40:58.309Z,0.20
2023-01-29T02:42:31.112Z,0.10
2023-01-29T02:44:03.930Z,0.10
2023-01-29T02:45:19.203Z,0.10
2023-01-29T02:46:32.077Z,0.10
2023-01-29T02:47:46.349Z,0.10
2023-01-29T02:48:54.074Z,0.10
2023-01-29T02:50:12.193Z,0.10
2023-01-29T02:51:26.820Z,0.10
2023-01-29T02:52:38.638Z,0.10
2023-01-29T02:54:05.402Z,0.10
2023-01-29T02:55:18.375Z,0.10
2023-01-29T02:56:29.018Z,0.10
2023-01-29T02:57:39.686Z,0.10
2023-01-29T02:58:50.829Z,0.10
2023-01-29T02:59:57.580Z,0.10
2023-01-29T03:01:06.325Z,0.10
2023-01-29T03:02:17.758Z,0.10
2023-01-29T03:03:24.092Z,0.10
2023-01-29T03:04:34.908Z,0.10
2023-01-29T03:06:12.137Z,0.10
2023-01-29T03:07:46.994Z,0.10
2023-01-29T03:09:01.253Z,0.20
2023-01-29T03:10:04.800Z,0.10
2023-01-29T03:11:07.593Z,0.20
2023-01-29T03:12:28.971Z,0.10
2023-01-29T03:13:45.666Z,0.10
2023-01-29T03:15:09.144Z,0.10
2023-01-29T03:16:27.325Z,0.10
2023-01-29T03:17:35.591Z,0.10
2023-01-29T03:18:46.062Z,0.00
2023-01-29T03:19:49.687Z,0.10
2023-01-29T03:21:04.116Z,0.00
2023-01-29T03:22:08.510Z,0.10
2023-01-29T03:23:17.085Z,0.00
2023-01-29T03:24:58.549Z,0.10
2023-01-29T03:26:20.740Z,0.00
2023-01-29T03:27:46.556Z,0.00
2023-01-29T03:29:08.213Z,-0.10
2023-01-29T03:30:31.448Z,0.00
2023-01-29T03:32:02.296Z,0.00
2023-01-29T03:33:07.762Z,0.10
2023-01-29T03:34:18.190Z,0.10
2023-01-29T03:35:33.495Z,0.10
2023-01-29T03:37:03.321Z,0.10
2023-01-29T03:38:07.441Z,0.00
2023-01-29T03:39:11.480Z,0.10
2023-01-29T03:40:15.251Z,0.10
2023-01-29T03:41:20.338Z,0.10
2023-01-29T03:42:34.095Z,0.20
2023-01-29T03:43:38.194Z,0.20
2023-01-29T03:45:14.553Z,0.20
2023-01-29T03:46:24.863Z,0.10
2023-01-29T03:47:54.529Z,0.10
2023-01-29T03:49:01.835Z,0.20
2023-01-29T03:50:06.357Z,0.20
2023-01-29T03:51:22.977Z,0.10
2023-01-29T03:52:55.078Z,0.10
2023-01-29T03:54:17.910Z,0.00
2023-01-29T03:55:55.607Z,0.00
2023-01-29T03:57:15.515Z,0.00
2023-01-29T03:58:29.644Z,0.00
2023-01-29T03:59:52.450Z,-0.10
2023-01-29T04:01:31.431Z,-0.10
2023-01-29T04:02:47.235Z,-0.10
2023-01-29T04:03:54.359Z,-0.10
2023-01-29T04:05:19.755Z,-0.10
2023-01-29T04:06:44.427Z,-0.10
2023-01-29T04:07:53.988Z,-0.20
2023-01-29T04:09:02.905Z,-0.20
2023-01-29T04:10:17.419Z,-0.10
2023-01-29T04:11:22.381Z,-0.20
2023-01-29T04:12:59.679Z,-0.20
2023-01-29T04:14:01.332Z,-0.20
2023-01-29T04:15:07.941Z,-0.20
2023-01-29T04:16:16.659Z,-0.20
2023-01-29T04:17:55.556Z,-0.20
2023-01-29T04:19:10.605Z,-0.20
2023-01-29T04:20:15.738Z,-0.30
2023-01-29T04:21:18.543Z,-0.20
2023-01-29T04:22:36.077Z,-0.10
2023-01-29T04:23:38.401Z,-0.20
2023-01-29T04:24:41.013Z,-0.20
2023-01-29T04:25:46.871Z,-0.30
2023-01-29T04:27:17.860Z,-0.30
2023-01-29T04:28:28.277Z,-0.30
2023-01-29T04:29:45.841Z,-0.30
2023-01-29T04:30:51.118Z,-0.30
2023-01-29T04:31:57.999Z,-0.40
2023-01-29T04:33:26.867Z,-0.40
2023-01-29T04:34:35.352Z,-0.30
2023-01-29T04:35:55.349Z,-0.40
2023-01-29T04:37:15.431Z,-0.30
2023-01-29T04:38:32.666Z,-0.30
2023-01-29T04:39:55.342Z,-0.30
2023-01-29T04:41:11.999Z,-0.30
2023-01-29T04:42:31.189Z,-0.30
2023-01-29T04:44:03.531Z,-0.30
2023-01-29T04:45:18.479Z,-0.30
2023-01-29T04:46:22.569Z,-0.30
2023-01-29T04:47:42.926Z,-0.20
2023-01-29T04:49:05.537Z,-0.20
2023-01-29T04:50:39.344Z,-0.20
2023-01-29T04:51:49.557Z,-0.20
2023-01-29T04:53:34.499Z,-0.20
2023-01-29T04:54:53.358Z,-0.20
2023-01-29T04:56:20.833Z,-0.20
2023-01-29T04:57:54.526Z,-0.10
2023-01-29T04:59:04.772Z,-0.20
2023-01-29T05:00:16.841Z,-0.20
2023-01-29T05:01:20.144Z,-0.20
2023-01-29T05:02:24.645Z,-0.10
2023-01-29T05:03:27.272Z,-0.10
2023-01-29T05:04:32.494Z,0.00
2023-01-29T05:05:34.040Z,-0.10
2023-01-29T05:06:37.003Z,-0.10
2023-01-29T05:07:40.570Z,-0.10
2023-01-29T05:08:42.407Z,0.00
2023-01-29T05:09:46.343Z,0.00
2023-01-29T05:10:50.430Z,0.00
2023-01-29T05:11:52.270Z,0.00
2023-01-29T05:13:04.896Z,0.00
2023-01-29T05:14:10.059Z,0.00
2023-01-29T05:15:19.361Z,0.00
2023-01-29T05:16:28.083Z,0.10
2023-01-29T05:17:29.947Z,0.10
2023-01-29T05:18:32.526Z,0.20
2023-01-29T05:19:34.114Z,0.20
2023-01-29T05:20:41.081Z,0.20
2023-01-29T05:21:46.232Z,0.20
2023-01-29T05:22:49.178Z,0.20
2023-01-29T05:24:14.501Z,0.20
2023-01-29T05:25:28.464Z,0.20
2023-01-29T05:26:48.686Z,0.20
2023-01-29T05:28:05.088Z,0.20
2023-01-29T05:29:06.935Z,0.20
2023-01-29T05:30:10.596Z,0.30
2023-01-29T05:31:12.151Z,0.40
2023-01-29T05:32:14.653Z,0.40
2023-01-29T05:33:20.335Z,0.40
2023-01-29T05:34:48.151Z,0.30
2023-01-29T05:35:50.621Z,0.20
2023-01-29T05:36:52.147Z,0.20
2023-01-29T05:37:53.633Z,0.00
2023-01-29T05:38:55.052Z,0.00
2023-01-29T05:39:56.798Z,0.00
2023-01-29T05:40:59.363Z,0.00
2023-01-29T05:42:00.783Z,0.00
2023-01-29T05:43:02.718Z,0.00
2023-01-29T05:44:04.309Z,0.00
2023-01-29T05:45:06.365Z,0.00
2023-01-29T05:46:07.860Z,0.00
2023-01-29T05:47:09.504Z,0.00
2023-01-29T05:48:10.979Z,0.00
2023-01-29T05:49:12.997Z,0.10
2023-01-29T05:50:15.286Z,0.10
2023-01-29T05:51:17.220Z,0.10
2023-01-29T05:52:18.864Z,0.10
2023-01-29T05:53:20.554Z,0.10
2023-01-29T05:54:22.385Z,0.00
2023-01-29T05:55:23.876Z,0.00
2023-01-29T05:56:25.518Z,0.00
2023-01-29T05:57:26.992Z,0.00
2023-01-29T05:58:30.561Z,0.00
2023-01-29T05:59:32.006Z,0.10
2023-01-29T06:00:33.421Z,0.10
2023-01-29T06:01:34.903Z,0.10
2023-01-29T06:02:36.383Z,0.00
2023-01-29T06:03:37.738Z,-0.10
2023-01-29T06:04:39.238Z,-0.20
2023-01-29T06:05:41.132Z,-0.20
2023-01-29T06:06:43.808Z,-0.30
2023-01-29T06:07:45.543Z,-0.30
2023-01-29T06:08:47.767Z,-0.40
2023-01-29T06:09:49.233Z,-0.40
2023-01-29T06:10:50.715Z,-0.40
2023-01-29T06:11:52.121Z,-0.40
2023-01-29T06:12:53.766Z,-0.50
2023-01-29T06:13:55.240Z,-0.40
2023-01-29T06:14:56.786Z,-0.40
2023-01-29T06:15:58.237Z,-0.40
2023-01-29T06:16:59.712Z,-0.40
2023-01-29T06:18:01.245Z,-0.40
2023-01-29T06:19:02.752Z,-0.40
2023-01-29T06:20:05.411Z,-0.40
2023-01-29T06:21:09.623Z,-0.40
2023-01-29T06:22:11.231Z,-0.50
2023-01-29T06:23:12.692Z,-0.50
2023-01-29T06:24:14.376Z,-0.60
2023-01-29T06:25:16.005Z,-0.60
2023-01-29T06:26:17.486Z,-0.70
2023-01-29T06:27:19.223Z,-0.70
2023-01-29T06:28:21.104Z,-0.70
2023-01-29T06:29:22.863Z,-0.70
2023-01-29T06:30:24.349Z,-0.80
2023-01-29T06:31:37.959Z,-0.80
2023-01-29T06:32:40.556Z,-0.80
2023-01-29T06:33:42.145Z,-0.90
2023-01-29T06:34:43.794Z,-0.90
2023-01-29T06:35:45.249Z,-0.90
2023-01-29T06:36:47.072Z,-1.00
2023-01-29T06:37:48.462Z,-1.00
2023-01-29T06:38:50.159Z,-1.00
2023-01-29T06:39:51.831Z,-1.00
2023-01-29T06:40:53.818Z,-1.00
2023-01-29T06:41:55.235Z,-1.00
2023-01-29T06:42:56.962Z,-1.10
2023-01-29T06:43:58.589Z,-1.10
2023-01-29T06:45:00.099Z,-1.10
2023-01-29T06:46:01.704Z,-1.10
2023-01-29T06:47:03.222Z,-1.20
2023-01-29T06:48:04.812Z,-1.20
2023-01-29T06:49:06.393Z,-1.10
2023-01-29T06:50:08.271Z,-1.10
2023-01-29T06:51:10.784Z,-1.00
2023-01-29T06:52:12.190Z,-1.10
2023-01-29T06:53:13.638Z,-1.10
2023-01-29T06:54:15.106Z,-1.10
2023-01-29T06:55:16.720Z,-1.20
2023-01-29T06:56:18.119Z,-1.20
2023-01-29T06:57:19.895Z,-1.10
2023-01-29T06:58:21.545Z,-1.10
2023-01-29T06:59:22.997Z,-1.20
2023-01-29T07:00:24.612Z,-1.20
2023-01-29T07:01:35.797Z,-1.30
2023-01-29T07:02:37.730Z,-1.30
2023-01-29T07:03:39.553Z,-1.40
2023-01-29T07:04:42.670Z,-1.30
2023-01-29T07:05:50.707Z,-1.20
2023-01-29T07:06:52.261Z,-1.30
2023-01-29T07:07:54.135Z,-1.40
2023-01-29T07:08:56.094Z,-1.30
2023-01-29T07:09:57.497Z,-1.30
2023-01-29T07:11:00.267Z,-1.20
2023-01-29T07:12:01.951Z,-1.20
2023-01-29T07:13:03.363Z,-1.30
2023-01-29T07:14:05.534Z,-1.20
2023-01-29T07:15:07.671Z,-1.30
2023-01-29T07:16:10.000Z,-1.30
2023-01-29T07:17:11.562Z,-1.30
2023-01-29T07:18:13.039Z,-1.40
2023-01-29T07:19:14.510Z,-1.40
2023-01-29T07:20:16.597Z,-1.30
2023-01-29T07:21:18.233Z,-1.20
2023-01-29T07:22:19.821Z,-1.20
2023-01-29T07:23:21.487Z,-1.10
2023-01-29T07:24:23.268Z,-1.10
2023-01-29T07:25:25.363Z,-1.00
2023-01-29T07:26:26.863Z,-1.10
2023-01-29T07:27:28.328Z,-1.10
2023-01-29T07:28:30.548Z,-1.10
2023-01-29T07:29:31.935Z,-1.00
2023-01-29T07:30:34.017Z,-0.90
2023-01-29T07:31:35.567Z,-0.90
2023-01-29T07:32:37.151Z,-1.00
2023-01-29T07:33:38.937Z,-0.90
2023-01-29T07:34:40.370Z,-1.00
2023-01-29T07:35:43.271Z,-1.00
2023-01-29T07:36:44.819Z,-0.90
2023-01-29T07:37:50.080Z,-0.90
2023-01-29T07:38:51.854Z,-0.90
2023-01-29T07:39:54.379Z,-0.80
2023-01-29T07:40:55.871Z,-0.80
2023-01-29T07:41:57.354Z,-0.70
2023-01-29T07:43:07.081Z,-0.70
2023-01-29T07:44:09.297Z,-0.70
2023-01-29T07:45:11.604Z,-0.70
2023-01-29T07:46:13.087Z,-0.70
2023-01-29T07:47:16.398Z,-0.60
2023-01-29T07:48:18.910Z,-0.60
2023-01-29T07:49:20.744Z,-0.60
2023-01-29T07:50:24.082Z,-0.60
2023-01-29T07:51:25.535Z,-0.50
2023-01-29T07:52:28.951Z,-0.50
2023-01-29T07:53:30.656Z,-0.50
2023-01-29T07:54:32.032Z,-0.50
2023-01-29T07:55:33.965Z,-0.50
2023-01-29T07:56:35.379Z,-0.40
2023-01-29T07:57:37.076Z,-0.40
2023-01-29T07:58:38.893Z,-0.40
2023-01-29T07:59:40.331Z,-0.40
2023-01-29T08:00:42.283Z,-0.40
2023-01-29T08:01:44.107Z,-0.30
2023-01-29T08:02:45.514Z,-0.30
2023-01-29T08:03:47.699Z,-0.20
2023-01-29T08:04:49.584Z,-0.20
2023-01-29T08:05:51.464Z,-0.20
2023-01-29T08:06:52.888Z,-0.10
2023-01-29T08:08:06.048Z,0.00
2023-01-29T08:09:08.810Z,0.00
2023-01-29T08:10:10.928Z,0.00
2023-01-29T08:11:12.371Z,0.00
2023-01-29T08:12:14.380Z,0.10
2023-01-29T08:13:16.053Z,0.10
2023-01-29T08:14:17.543Z,0.20
2023-01-29T08:15:19.293Z,0.20
2023-01-29T08:16:20.759Z,0.20
2023-01-29T08:17:22.230Z,0.30
2023-01-29T08:18:23.950Z,0.30
2023-01-29T08:19:25.385Z,0.50
2023-01-29T08:20:26.795Z,0.50
2023-01-29T08:21:28.476Z,0.60
2023-01-29T08:22:30.082Z,0.60
2023-01-29T08:23:31.493Z,0.60
2023-01-29T08:24:47.547Z,0.50
2023-01-29T08:25:55.222Z,0.50
2023-01-29T08:26:56.633Z,0.40
2023-01-29T08:27:59.257Z,0.30
2023-01-29T08:29:00.986Z,0.20
2023-01-29T08:30:02.648Z,0.20
2023-01-29T08:31:04.927Z,0.20
2023-01-29T08:32:10.250Z,0.30
2023-01-29T08:33:11.951Z,0.30
2023-01-29T08:34:13.363Z,0.20
2023-01-29T08:35:14.874Z,0.30
2023-01-29T08:36:17.012Z,0.30
2023-01-29T08:37:18.497Z,0.40
2023-01-29T08:38:20.056Z,0.50
2023-01-29T08:39:21.774Z,0.50
2023-01-29T08:40:23.456Z,0.60
2023-01-29T08:41:25.146Z,0.70
2023-01-29T08:42:26.604Z,0.80
2023-01-29T08:43:28.128Z,0.80
2023-01-29T08:44:29.961Z,0.90
2023-01-29T08:45:35.211Z,0.90
2023-01-29T08:46:37.227Z,0.80
2023-01-29T08:47:38.684Z,0.60
2023-01-29T08:48:40.135Z,0.60
2023-01-29T08:49:41.518Z,0.60
2023-01-29T08:50:42.987Z,0.60
2023-01-29T08:51:44.445Z,0.70
2023-01-29T08:52:46.294Z,0.70
2023-01-29T08:53:47.851Z,0.80
2023-01-29T08:54:49.482Z,0.80
2023-01-29T08:55:50.855Z,0.90
2023-01-29T08:56:52.717Z,0.90
2023-01-29T08:57:55.156Z,0.90
2023-01-29T08:58:58.326Z,0.80
2023-01-29T09:00:00.462Z,0.80
2023-01-29T09:01:13.257Z,0.60
2023-01-29T09:02:15.053Z,0.60
2023-01-29T09:03:16.606Z,0.50
2023-01-29T09:04:18.220Z,0.50
2023-01-29T09:05:20.106Z,0.50
2023-01-29T09:06:21.857Z,0.40
2023-01-29T09:07:23.597Z,0.30
2023-01-29T09:08:25.040Z,0.30
2023-01-29T09:09:26.601Z,0.20
2023-01-29T09:10:28.066Z,0.10
2023-01-29T09:11:29.569Z,0.10
2023-01-29T09:12:31.197Z,0.10
2023-01-29T09:13:32.916Z,0.10
2023-01-29T09:14:34.411Z,0.20
2023-01-29T09:15:35.882Z,0.20
2023-01-29T09:16:37.441Z,0.20
2023-01-29T09:17:38.976Z,0.30
2023-01-29T09:18:40.548Z,0.30
2023-01-29T09:19:42.227Z,0.20
2023-01-29T09:20:43.700Z,0.20
2023-01-29T09:21:45.149Z,0.20
2023-01-29T09:22:47.388Z,0.30
2023-01-29T09:23:48.994Z,0.20
2023-01-29T09:24:50.446Z,0.20
2023-01-29T09:25:51.833Z,0.30
2023-01-29T09:26:53.258Z,0.30
2023-01-29T09:27:54.899Z,0.40
2023-01-29T09:28:56.760Z,0.40
2023-01-29T09:29:58.642Z,0.40
2023-01-29T09:31:03.618Z,0.40
2023-01-29T09:32:05.512Z,0.40
2023-01-29T09:33:08.688Z,0.50
2023-01-29T09:34:10.160Z,0.50
2023-01-29T09:35:11.852Z,0.50
2023-01-29T09:36:14.551Z,0.60
2023-01-29T09:37:17.641Z,0.60
2023-01-29T09:38:19.191Z,0.60
2023-01-29T09:39:20.723Z,0.50
2023-01-29T09:40:54.088Z,0.50
2023-01-29T09:42:36.047Z,0.30
2023-01-29T09:43:45.230Z,0.20
2023-01-29T09:44:57.322Z,0.30
2023-01-29T09:46:04.856Z,0.30
2023-01-29T09:47:13.233Z,0.30
2023-01-29T09:48:15.135Z,0.30
2023-01-29T09:49:31.516Z,0.30
2023-01-29T09:50:40.858Z,0.30
2023-01-29T09:51:46.280Z,0.30
2023-01-29T09:52:57.944Z,0.30
2023-01-29T09:54:05.129Z,0.30
2023-01-29T09:55:35.398Z,0.30
2023-01-29T09:56:37.238Z,0.30
2023-01-29T09:57:52.132Z,0.40
2023-01-29T09:58:53.767Z,0.40
2023-01-29T09:59:55.691Z,0.30
2023-01-29T10:00:57.132Z,0.30
2023-01-29T10:02:19.324Z,0.20
2023-01-29T10:03:36.767Z,0.20
2023-01-29T10:04:59.219Z,0.30
2023-01-29T10:06:12.396Z,0.50
2023-01-29T10:07:38.447Z,0.60
2023-01-29T10:09:00.719Z,0.70
2023-01-29T10:10:27.780Z,0.80
2023-01-29T10:11:54.231Z,0.90
2023-01-29T10:13:12.262Z,0.90
2023-01-29T10:14:18.188Z,1.00
2023-01-29T10:15:52.566Z,0.90
2023-01-29T10:17:06.511Z,1.00
2023-01-29T10:18:46.537Z,1.10
2023-01-29T10:20:04.882Z,1.10
2023-01-29T10:21:19.567Z,1.10
2023-01-29T10:22:36.881Z,1.20
2023-01-29T10:23:46.879Z,1.20
2023-01-29T10:25:11.803Z,1.20
2023-01-29T10:26:14.077Z,1.10
2023-01-29T10:27:17.600Z,1.10
2023-01-29T10:28:21.767Z,1.10
2023-01-29T10:29:23.795Z,1.10
2023-01-29T10:30:41.064Z,1.20
2023-01-29T10:31:43.880Z,1.10
2023-01-29T10:32:46.705Z,1.00
2023-01-29T10:34:01.999Z,1.00
2023-01-29T10:35:14.374Z,1.00
2023-01-29T10:36:32.107Z,1.10
2023-01-29T10:37:41.919Z,1.30
2023-01-29T10:38:48.395Z,1.20
2023-01-29T10:39:51.090Z,1.20
2023-01-29T10:41:09.953Z,1.10
2023-01-29T10:42:21.565Z,1.20
2023-01-29T10:43:38.725Z,1.40
2023-01-29T10:44:58.890Z,1.60
2023-01-29T10:46:38.343Z,1.70
2023-01-29T10:47:59.851Z,1.90
2023-01-29T10:49:09.141Z,2.00
2023-01-29T10:50:10.855Z,2.00
2023-01-29T10:51:40.149Z,2.10
2023-01-29T10:53:03.005Z,2.10
2023-01-29T10:54:15.437Z,2.20
2023-01-29T10:55:25.777Z,2.30
2023-01-29T10:56:52.877Z,2.30
2023-01-29T10:58:16.857Z,2.40
2023-01-29T10:59:46.018Z,2.50
2023-01-29T11:00:47.674Z,2.60
2023-01-29T11:01:49.170Z,2.60
2023-01-29T11:02:52.137Z,2.70
2023-01-29T11:04:03.520Z,2.80
2023-01-29T11:05:18.892Z,2.80
2023-01-29T11:06:32.304Z,2.70
2023-01-29T11:07:33.904Z,2.60
2023-01-29T11:08:58.331Z,2.70
2023-01-29T11:10:07.809Z,2.70
2023-01-29T11:11:14.936Z,2.80
2023-01-29T11:12:24.888Z,2.60
2023-01-29T11:13:32.390Z,2.60
2023-01-29T11:14:45.573Z,2.50
2023-01-29T11:15:47.379Z,2.60
2023-01-29T11:16:49.349Z,2.60
2023-01-29T11:18:15.818Z,2.40
2023-01-29T11:19:17.804Z,2.50
2023-01-29T11:20:27.870Z,2.60
2023-01-29T11:21:29.954Z,2.60
2023-01-29T11:22:31.506Z,2.60
2023-01-29T11:23:34.137Z,2.60
2023-01-29T11:24:35.743Z,2.70
2023-01-29T11:25:37.354Z,2.70
2023-01-29T11:26:42.118Z,2.70
2023-01-29T11:27:54.639Z,2.60
2023-01-29T11:28:56.181Z,2.70
2023-01-29T11:29:57.721Z,2.80
2023-01-29T11:30:59.354Z,2.80
2023-01-29T11:32:14.562Z,2.80
2023-01-29T11:33:26.530Z,2.90
2023-01-29T11:34:29.199Z,3.00
2023-01-29T11:35:32.868Z,3.00
2023-01-29T11:36:38.743Z,3.00
2023-01-29T11:37:43.561Z,3.10
2023-01-29T11:38:45.157Z,3.00
2023-01-29T11:39:50.576Z,3.00
2023-01-29T11:40:53.666Z,3.00
2023-01-29T11:42:08.351Z,2.90
2023-01-29T11:43:31.530Z,2.70
2023-01-29T11:44:42.278Z,2.80
2023-01-29T11:45:44.506Z,2.80
2023-01-29T11:46:46.647Z,3.00
2023-01-29T11:50:58.343Z,2.80
2023-01-29T11:52:03.108Z,2.70
2023-01-29T11:53:06.992Z,2.80
2023-01-29T11:54:18.039Z,2.80
2023-01-29T11:55:23.197Z,2.90
2023-01-29T11:56:34.075Z,2.90
2023-01-29T11:57:37.122Z,3.00
2023-01-29T11:58:41.692Z,3.00
2023-01-29T11:59:50.016Z,3.10
2023-01-29T12:00:54.367Z,3.10
2023-01-29T12:01:56.311Z,3.10
2023-01-29T12:03:39.782Z,3.10
2023-01-29T12:04:41.513Z,3.10
2023-01-29T12:05:55.673Z,3.20
2023-01-29T12:06:58.118Z,3.30
2023-01-29T12:08:02.082Z,3.40
2023-01-29T12:09:11.475Z,3.40
2023-01-29T12:10:41.502Z,3.40
2023-01-29T12:11:43.080Z,3.50
2023-01-29T12:12:44.790Z,3.50
2023-01-29T12:13:54.768Z,3.40
2023-01-29T12:15:25.845Z,3.30
2023-01-29T12:16:30.334Z,3.20
2023-01-29T12:17:36.530Z,3.10
2023-01-29T12:18:46.621Z,3.20
2023-01-29T12:20:03.769Z,3.20
2023-01-29T12:21:20.688Z,3.20
2023-01-29T12:22:45.597Z,3.30
2023-01-29T12:24:23.162Z,3.20
2023-01-29T12:25:43.619Z,3.30
2023-01-29T12:26:51.919Z,3.20
2023-01-29T12:28:00.354Z,3.10
2023-01-29T12:29:19.835Z,3.10
2023-01-29T12:30:26.226Z,3.20
2023-01-29T12:32:01.152Z,3.30
2023-01-29T12:33:18.423Z,3.30
2023-01-29T12:34:35.521Z,3.00
2023-01-29T12:35:43.697Z,2.90
2023-01-29T12:37:16.333Z,2.90
2023-01-29T12:38:20.309Z,2.90
2023-01-29T12:39:22.407Z,2.70
2023-01-29T12:40:31.508Z,2.70
2023-01-29T12:41:45.807Z,2.70
2023-01-29T12:42:55.421Z,2.90
2023-01-29T12:44:07.211Z,3.00
2023-01-29T12:45:15.977Z,3.20
2023-01-29T12:46:34.686Z,3.30
2023-01-29T12:47:41.928Z,3.30
2023-01-29T12:48:45.821Z,3.40
2023-01-29T12:49:53.816Z,3.30
2023-01-29T12:50:57.732Z,3.30
2023-01-29T12:52:15.692Z,3.20
2023-01-29T12:53:32.058Z,3.00
2023-01-29T12:54:40.020Z,3.00
2023-01-29T12:55:48.740Z,3.00
2023-01-29T12:56:55.729Z,3.10
2023-01-29T12:58:16.095Z,3.10
2023-01-29T12:59:25.028Z,3.10
2023-01-29T13:00:31.760Z,3.00
2023-01-29T13:01:39.143Z,3.00
2023-01-29T13:02:49.698Z,2.90
2023-01-29T13:04:00.581Z,2.90
2023-01-29T13:05:26.293Z,3.00
2023-01-29T13:06:42.076Z,3.00
2023-01-29T13:07:49.999Z,3.10
2023-01-29T13:08:58.721Z,3.10
2023-01-29T13:10:07.422Z,3.10
2023-01-29T13:11:19.650Z,3.20
2023-01-29T13:12:23.647Z,3.20
2023-01-29T13:13:32.908Z,3.20
2023-01-29T13:15:02.788Z,3.10
2023-01-29T13:16:07.768Z,3.30
2023-01-29T13:17:43.738Z,3.40
2023-01-29T13:18:55.991Z,3.50
2023-01-29T13:20:09.303Z,3.50
2023-01-29T13:21:17.350Z,3.60
2023-01-29T13:22:27.473Z,3.60
2023-01-29T13:23:36.241Z,3.70
2023-01-29T13:24:41.114Z,3.70
2023-01-29T13:25:43.169Z,3.70
2023-01-29T13:26:46.850Z,3.80
2023-01-29T13:27:49.156Z,3.80
2023-01-29T13:28:52.512Z,3.80
2023-01-29T13:29:55.597Z,3.90
2023-01-29T13:31:24.846Z,3.90
2023-01-29T13:32:29.147Z,3.80
2023-01-29T13:33:30.850Z,3.90
2023-01-29T13:34:44.457Z,4.10
2023-01-29T13:35:46.710Z,4.10
2023-01-29T13:36:51.547Z,4.20
2023-01-29T13:37:54.694Z,4.30
2023-01-29T13:39:07.733Z,4.40
2023-01-29T13:40:30.226Z,4.60
2023-01-29T13:41:37.776Z,4.70
2023-01-29T13:42:47.128Z,4.70
2023-01-29T13:43:50.320Z,4.80
2023-01-29T13:44:54.231Z,4.90
2023-01-29T13:45:56.135Z,5.00
2023-01-29T13:47:01.915Z,5.00
2023-01-29T13:48:28.930Z,5.00
2023-01-29T13:49:41.847Z,5.20
2023-01-29T13:50:45.756Z,5.40
2023-01-29T13:51:47.487Z,5.40
2023-01-29T13:53:02.267Z,5.30
2023-01-29T13:54:09.373Z,5.00
2023-01-29T13:55:13.779Z,4.60
2023-01-29T13:56:33.291Z,4.60
2023-01-29T13:57:44.273Z,4.30
2023-01-29T13:58:54.795Z,4.30
2023-01-29T13:59:57.638Z,4.30
2023-01-29T14:01:01.551Z,4.20
2023-01-29T14:02:19.239Z,4.10
2023-01-29T14:03:23.617Z,3.90
2023-01-29T14:04:31.053Z,3.80
2023-01-29T14:05:34.055Z,3.70
2023-01-29T14:06:40.480Z,3.50
2023-01-29T14:07:51.271Z,3.40
2023-01-29T14:08:52.781Z,3.40
2023-01-29T14:10:18.432Z,3.40
2023-01-29T14:11:20.739Z,3.50
2023-01-29T14:12:22.267Z,3.40
2023-01-29T14:13:27.528Z,3.40
2023-01-29T14:14:56.826Z,3.50
2023-01-29T14:15:58.398Z,3.50
2023-01-29T14:17:03.316Z,3.50
2023-01-29T14:18:06.595Z,3.50
2023-01-29T14:19:18.713Z,3.50
2023-01-29T14:20:32.381Z,3.40
2023-01-29T14:21:40.997Z,3.50
2023-01-29T14:22:43.691Z,3.40
2023-01-29T14:23:49.767Z,3.50
2023-01-29T14:24:55.699Z,3.60
2023-01-29T14:26:00.994Z,3.60
2023-01-29T14:27:03.853Z,3.70
2023-01-29T14:28:14.997Z,3.80
2023-01-29T14:29:32.566Z,3.80
2023-01-29T14:30:36.444Z,3.80
2023-01-29T14:31:49.072Z,3.80
2023-01-29T14:32:51.751Z,3.70
2023-01-29T14:33:53.510Z,3.80
2023-01-29T14:35:04.069Z,3.80
2023-01-29T14:36:15.195Z,3.80
2023-01-29T14:37:16.701Z,3.90
2023-01-29T14:38:18.808Z,3.90
2023-01-29T14:39:25.197Z,4.00
2023-01-29T14:40:29.817Z,4.10
2023-01-29T14:41:34.101Z,4.10
2023-01-29T14:42:45.658Z,4.00
2023-01-29T14:43:47.286Z,4.10
2023-01-29T14:45:01.146Z,4.10
2023-01-29T14:46:33.340Z,4.20
2023-01-29T14:47:34.944Z,4.20
2023-01-29T14:48:48.493Z,4.20
2023-01-29T14:49:56.782Z,4.20
2023-01-29T14:51:05.781Z,4.20
2023-01-29T14:52:12.416Z,4.20
2023-01-29T14:53:30.055Z,4.20
2023-01-29T14:54:34.001Z,4.20
2023-01-29T14:55:45.334Z,4.20
2023-01-29T14:56:57.603Z,4.20
2023-01-29T14:57:59.744Z,4.30
2023-01-29T14:59:47.096Z,4.20
2023-01-29T15:00:53.463Z,4.30
2023-01-29T15:02:03.548Z,4.20
2023-01-29T15:03:16.060Z,4.10
2023-01-29T15:04:23.988Z,4.00
2023-01-29T15:05:32.836Z,3.90